Time;durP1;ratioP1;P1;durP2;ratioP2;P2;SDS_P1;SDS_P2;PMS_P1;PMS_P2;Temp;Humidity;BMP_temperature;BMP_pressure;BME280_temperature;BME280_humidity;BME280_pressure;Samples;Min_cycle;Max_cycle;Signal;HPM_P1;HPM_P2
2022/10/22 00:01:15;;;;;;;65.15;38.85;;;;;;;17.29;71.80;100460.06;4907558;28;119903;-81
2022/10/22 00:04:06;;;;;;;62.00;36.88;;;;;;;17.27;71.92;100463.34;4890084;28;120353;-81
2022/10/22 00:06:32;;;;;;;60.40;37.22;;;;;;;17.37;72.01;100478.44;4918427;28;119984;-80
2022/10/22 00:08:58;;;;;;;59.28;36.13;;;;;;;17.36;71.84;100474.16;4890996;28;153392;-81
2022/10/22 00:11:26;;;;;;;60.72;37.33;;;;;;;17.40;72.03;100482.22;4912302;28;120493;-81
2022/10/22 00:13:54;;;;;;;66.45;38.72;;;;;;;17.40;72.01;100485.00;4904595;28;119652;-80
2022/10/22 00:16:20;;;;;;;62.47;37.45;;;;;;;17.43;72.14;100489.53;4897923;28;119815;-81
2022/10/22 00:18:45;;;;;;;61.47;37.30;;;;;;;17.45;72.12;100487.03;4899333;28;119689;-81
2022/10/22 00:21:11;;;;;;;65.38;38.65;;;;;;;17.46;71.80;100494.09;4907862;28;119635;-81
2022/10/22 00:23:41;;;;;;;65.45;38.65;;;;;;;17.44;72.04;100496.59;4901534;28;119705;-81
2022/10/22 00:26:07;;;;;;;62.72;36.95;;;;;;;17.47;72.20;100504.66;4905862;28;120017;-80
2022/10/22 00:28:32;;;;;;;65.32;39.05;;;;;;;17.48;72.04;100500.63;4904745;28;119438;-80
2022/10/22 00:30:59;;;;;;;69.63;39.17;;;;;;;17.51;72.18;100507.22;4901430;28;119364;-81
2022/10/22 00:33:26;;;;;;;63.63;39.47;;;;;;;17.51;72.13;100504.44;4900987;28;119780;-81
2022/10/22 00:35:52;;;;;;;62.75;37.75;;;;;;;17.52;72.12;100511.50;4897961;28;121294;-80
2022/10/22 00:38:18;;;;;;;65.22;38.47;;;;;;;17.53;72.19;100501.16;4900303;28;120053;-81
2022/10/22 00:40:43;;;;;;;65.32;37.35;;;;;;;17.50;72.00;100500.88;4913833;28;120305;-81
2022/10/22 00:43:15;;;;;;;58.33;36.30;;;;;;;17.53;72.24;100510.25;4900430;28;119868;-80
2022/10/22 00:45:41;;;;;;;62.40;36.65;;;;;;;17.52;72.14;100500.41;4900908;28;120826;-80
2022/10/22 00:48:24;;;;;;;61.70;36.40;;;;;;;17.56;72.18;100500.16;4891631;28;119747;-82
2022/10/22 00:51:05;;;;;;;58.07;37.03;;;;;;;17.54;72.14;100503.44;4900569;28;119569;-80
2022/10/22 00:53:36;;;;;;;67.07;38.30;;;;;;;17.49;71.89;100498.63;4912373;28;119312;-81
2022/10/22 00:56:02;;;;;;;66.60;38.38;;;;;;;17.56;72.09;100506.47;4901062;28;119411;-80
2022/10/22 00:58:32;;;;;;;60.50;36.92;;;;;;;17.58;72.14;100503.94;4907879;28;120550;-81
2022/10/22 01:00:58;;;;;;;60.70;36.22;;;;;;;17.59;72.17;100507.47;4900182;28;119891;-81
2022/10/22 01:03:24;;;;;;;66.32;37.42;;;;;;;17.59;71.92;100494.34;4900596;28;119910;-81
2022/10/22 01:05:56;;;;;;;55.13;34.97;;;;;;;17.60;71.90;100492.34;4900763;28;119810;-81
2022/10/22 01:08:53;;;;;;;62.70;36.15;;;;;;;17.59;71.84;100499.91;4908496;28;119501;-81
2022/10/22 01:11:37;;;;;;;62.85;38.13;;;;;;;17.59;72.00;100505.44;4886235;28;119956;-79
2022/10/22 01:14:31;;;;;;;69.07;37.75;;;;;;;17.56;71.83;100495.38;4893044;28;119799;-81
2022/10/22 01:17:08;;;;;;;61.80;36.33;;;;;;;17.57;72.02;100496.13;4885558;28;119939;-80
2022/10/22 01:20:06;;;;;;;61.63;37.28;;;;;;;17.60;71.87;100497.88;4902704;28;120846;-81
2022/10/22 01:22:50;;;;;;;65.18;36.55;;;;;;;17.59;72.11;100497.13;4899337;28;119920;-80
2022/10/22 01:25:36;;;;;;;64.55;37.58;;;;;;;17.60;72.01;100495.88;4883777;28;120819;-81
2022/10/22 01:28:37;;;;;;;72.75;39.75;;;;;;;17.59;72.13;100491.59;4900834;28;119461;-81
2022/10/22 01:31:04;;;;;;;67.60;37.55;;;;;;;17.56;72.07;100497.38;4917491;28;119599;-80
2022/10/22 01:33:32;;;;;;;70.32;39.40;;;;;;;17.59;72.08;100499.91;4899529;28;119862;-80
2022/10/22 01:35:58;;;;;;;70.72;39.05;;;;;;;17.61;72.13;100505.69;4902024;28;119506;-81
2022/10/22 01:38:25;;;;;;;75.05;40.50;;;;;;;17.58;72.38;100498.41;4894392;28;119651;-81
2022/10/22 01:40:52;;;;;;;69.72;38.08;;;;;;;17.63;72.03;100510.75;4896397;28;122027;-81
2022/10/22 01:43:18;;;;;;;76.85;41.17;;;;;;;17.63;72.34;100505.19;4883260;28;119634;-80
2022/10/22 01:45:52;;;;;;;79.80;40.97;;;;;;;17.64;72.13;100501.91;4900578;28;119525;-81
2022/10/22 01:48:36;;;;;;;84.03;42.40;;;;;;;17.66;72.25;100504.19;4898443;28;121274;-81
2022/10/22 01:51:11;;;;;;;74.43;39.30;;;;;;;17.66;72.27;100513.25;4907089;28;119748;-80
2022/10/22 01:54:13;;;;;;;77.63;40.70;;;;;;;17.65;72.21;100508.22;4892910;28;119701;-81
2022/10/22 01:56:57;;;;;;;76.70;41.33;;;;;;;17.66;72.22;100504.19;4889635;28;120527;-80
2022/10/22 01:59:58;;;;;;;74.78;40.90;;;;;;;17.66;72.14;100504.94;4879313;28;120480;-80
2022/10/22 02:02:24;;;;;;;74.03;40.38;;;;;;;17.67;72.44;100497.38;4893997;28;119412;-82
2022/10/22 02:04:59;;;;;;;73.75;40.17;;;;;;;17.66;72.37;100504.94;4899375;28;119911;-81
2022/10/22 02:07:31;;;;;;;69.95;39.28;;;;;;;17.70;72.59;100496.41;4897886;28;120072;-79
2022/10/22 02:09:59;;;;;;;73.35;39.88;;;;;;;17.70;72.34;100505.47;4907530;28;122365;-81
2022/10/22 02:12:28;;;;;;;75.13;40.00;;;;;;;17.73;72.50;100493.38;4917616;28;119928;-80
2022/10/22 02:14:55;;;;;;;76.97;40.35;;;;;;;17.74;72.33;100494.13;4885873;28;121178;-81
2022/10/22 02:17:30;;;;;;;77.60;40.20;;;;;;;17.71;72.36;100493.13;4898034;28;120512;-81
2022/10/22 02:20:05;;;;;;;86.82;41.80;;;;;;;17.71;72.40;100487.56;4904543;28;119363;-81
2022/10/22 02:22:31;;;;;;;77.47;39.97;;;;;;;17.69;72.27;100481.78;4915295;28;119617;-80
2022/10/22 02:25:00;;;;;;;85.25;42.20;;;;;;;17.73;72.08;100498.16;4906882;28;119853;-80
2022/10/22 02:27:31;;;;;;;78.25;40.15;;;;;;;17.73;72.22;100498.91;4915447;28;120021;-80
2022/10/22 02:30:07;;;;;;;79.53;41.38;;;;;;;17.73;72.18;100498.91;4887699;28;120300;-81
2022/10/22 02:33:27;;;;;;;78.43;40.30;;;;;;;17.73;72.34;100498.16;4898439;28;119656;-81
2022/10/22 02:35:54;;;;;;;74.10;39.97;;;;;;;17.69;71.97;100505.97;4860322;28;119689;-81
2022/10/22 02:38:23;;;;;;;77.85;40.28;;;;;;;17.66;72.03;100488.31;4871386;28;120246;-81
2022/10/22 02:40:48;;;;;;;83.72;42.15;;;;;;;17.72;72.34;100504.97;4894518;28;119826;-80
2022/10/22 02:43:16;;;;;;;86.10;40.65;;;;;;;17.72;72.35;100510.50;4908424;28;119804;-80
2022/10/22 02:45:41;;;;;;;82.40;42.80;;;;;;;17.71;72.58;100506.97;4903091;28;119536;-80
2022/10/22 02:48:10;;;;;;;88.32;42.28;;;;;;;17.67;72.39;100498.16;4895423;28;120012;-80
2022/10/22 02:50:36;;;;;;;85.95;41.70;;;;;;;17.71;72.29;100506.97;4895068;28;119532;-80
2022/10/22 02:53:02;;;;;;;84.85;41.55;;;;;;;17.73;72.04;100507.25;4892908;28;119814;-81
2022/10/22 02:55:27;;;;;;;81.13;40.63;;;;;;;17.72;72.11;100513.28;4900478;28;119777;-80
2022/10/22 02:57:53;;;;;;;74.25;38.95;;;;;;;17.72;71.86;100511.28;4896532;28;121131;-79
2022/10/22 03:00:19;;;;;;;76.20;39.08;;;;;;;17.74;72.07;100519.88;4894449;28;119722;-80
2022/10/22 03:02:45;;;;;;;80.00;40.13;;;;;;;17.73;72.01;100520.34;4901155;28;120438;-80
2022/10/22 03:05:11;;;;;;;86.40;42.72;;;;;;;17.73;72.06;100528.66;4909590;28;121764;-81
2022/10/22 03:07:36;;;;;;;86.65;42.58;;;;;;;17.72;72.23;100536.22;4879745;28;119848;-80
2022/10/22 03:10:03;;;;;;;88.13;43.33;;;;;;;17.74;72.26;100530.97;4895393;28;122521;-81
2022/10/22 03:12:29;;;;;;;95.38;45.58;;;;;;;17.71;72.43;100529.19;4918094;28;119378;-81
2022/10/22 03:14:54;;;;;;;92.72;45.33;;;;;;;17.74;72.47;100530.97;4918078;28;119690;-80
2022/10/22 03:17:20;;;;;;;99.43;46.35;;;;;;;17.78;72.45;100537.03;4899726;28;119362;-81
2022/10/22 03:19:45;;;;;;;92.30;44.90;;;;;;;17.76;72.74;100530.47;4898915;28;119834;-81
2022/10/22 03:22:16;;;;;;;102.28;45.35;;;;;;;17.84;72.55;100539.78;4900829;28;119741;-81
2022/10/22 03:24:46;;;;;;;95.63;43.92;;;;;;;17.84;72.76;100548.13;4908464;28;121237;-80
2022/10/22 03:27:15;;;;;;;96.10;45.53;;;;;;;17.74;72.52;100539.28;4904209;28;119570;-80
2022/10/22 03:29:41;;;;;;;100.82;46.60;;;;;;;17.83;72.36;100546.59;4917712;28;120396;-81
2022/10/22 03:32:07;;;;;;;109.10;46.85;;;;;;;17.89;72.49;100549.38;4904239;28;119531;-81
2022/10/22 03:34:33;;;;;;;98.68;46.60;;;;;;;17.89;72.17;100554.91;4899008;28;119390;-81
2022/10/22 03:37:00;;;;;;;101.80;47.22;;;;;;;17.89;72.33;100554.91;4910055;28;120994;-81
2022/10/22 03:39:28;;;;;;;103.03;47.08;;;;;;;17.84;72.38;100544.59;4913460;28;119590;-80
2022/10/22 03:41:54;;;;;;;100.68;46.38;;;;;;;17.89;72.14;100546.59;4897656;28;119907;-80
2022/10/22 03:44:21;;;;;;;99.60;45.70;;;;;;;17.92;72.40;100553.91;4896334;28;121938;-80
2022/10/22 03:46:47;;;;;;;103.57;47.47;;;;;;;17.90;72.23;100548.88;4897814;28;119870;-80
2022/10/22 03:49:13;;;;;;;103.68;46.85;;;;;;;17.91;71.90;100541.28;4904220;28;119539;-81
2022/10/22 03:51:38;;;;;;;105.10;48.97;;;;;;;17.92;72.21;100542.81;4902694;28;119865;-80
2022/10/22 03:54:04;;;;;;;102.05;46.10;;;;;;;17.89;71.83;100541.03;4914052;28;119952;-80
2022/10/22 03:56:30;;;;;;;98.93;46.45;;;;;;;17.92;72.06;100542.81;4901957;28;120180;-81
2022/10/22 03:58:58;;;;;;;110.38;46.25;;;;;;;17.91;71.95;100538.53;4901469;28;119827;-80
2022/10/22 04:01:25;;;;;;;108.82;45.78;;;;;;;17.91;71.98;100546.84;4904300;28;121757;-80
2022/10/22 04:03:51;;;;;;;112.47;47.72;;;;;;;17.90;71.81;100543.31;4880855;28;119962;-81
2022/10/22 04:06:16;;;;;;;114.15;47.30;;;;;;;17.89;71.86;100543.81;4896845;28;120278;-81
2022/10/22 04:08:43;;;;;;;119.32;49.08;;;;;;;17.88;71.92;100550.63;4906144;28;119587;-79
2022/10/22 04:11:14;;;;;;;143.80;56.38;;;;;;;17.88;71.95;100554.16;4903008;28;122565;-80
2022/10/22 04:13:40;;;;;;;133.43;52.50;;;;;;;17.87;72.20;100549.13;4914350;28;119754;-80
2022/10/22 04:16:45;;;;;;;123.63;49.42;;;;;;;17.75;72.19;100532.47;4848817;28;120000;-81
2022/10/22 04:19:10;;;;;;;139.73;52.78;;;;;;;17.84;72.16;100547.34;4839670;29;119965;-81
2022/10/22 04:21:36;;;;;;;168.50;55.22;;;;;;;17.84;72.41;100553.66;4836964;28;119582;-81
2022/10/22 04:24:02;;;;;;;148.85;54.83;;;;;;;17.85;72.42;100554.41;4860394;28;120224;-80
2022/10/22 04:26:27;;;;;;;184.23;59.38;;;;;;;17.85;72.13;100544.06;4854331;28;120077;-80
2022/10/22 04:28:53;;;;;;;145.25;55.17;;;;;;;17.86;72.55;100553.91;4843950;28;120078;-81
2022/10/22 04:31:21;;;;;;;148.95;56.47;;;;;;;17.85;72.42;100557.94;4859622;28;119645;-80
2022/10/22 04:33:55;;;;;;;161.85;56.80;;;;;;;17.79;72.41;100552.41;4847471;28;119588;-80
2022/10/22 04:36:21;;;;;;;184.80;56.83;;;;;;;17.83;72.60;100563.25;4847944;28;120233;-81
2022/10/22 04:38:52;;;;;;;170.00;57.05;;;;;;;17.84;72.58;100569.56;4855045;28;119902;-81
2022/10/22 04:41:22;;;;;;;184.88;58.35;;;;;;;17.83;72.32;100570.81;4884639;28;120375;-81
2022/10/22 04:43:48;;;;;;;145.13;54.95;;;;;;;17.85;72.48;100577.38;4906906;28;119773;-80
2022/10/22 04:46:16;;;;;;;155.20;55.45;;;;;;;17.85;72.45;100582.91;4899814;28;119471;-80
2022/10/22 04:48:44;;;;;;;141.65;55.03;;;;;;;17.83;72.79;100584.69;4901414;28;120096;-80
2022/10/22 04:51:15;;;;;;;382.70;64.10;;;;;;;17.84;72.68;100583.44;4899323;28;122254;-81
2022/10/22 04:53:42;;;;;;;178.70;56.80;;;;;;;17.83;72.70;100584.69;4905278;28;119952;-80
2022/10/22 04:56:28;;;;;;;187.02;57.85;;;;;;;17.81;72.81;100581.66;4909557;28;120054;-80
2022/10/22 04:58:56;;;;;;;201.52;59.47;;;;;;;17.77;72.77;100579.13;4913236;28;119740;-80
2022/10/22 05:01:27;;;;;;;206.35;56.20;;;;;;;17.77;72.90;100577.13;4900216;28;119742;-81
2022/10/22 05:03:55;;;;;;;225.75;58.72;;;;;;;17.75;73.01;100570.56;4900273;28;119748;-80
2022/10/22 05:06:41;;;;;;;200.65;57.97;;;;;;;17.75;72.77;100567.78;4894518;28;120344;-81
2022/10/22 05:09:12;;;;;;;210.98;59.63;;;;;;;17.70;73.04;100563.72;4911851;28;121118;-81
2022/10/22 05:11:44;;;;;;;309.88;62.85;;;;;;;17.74;73.02;100569.81;4890940;28;120855;-81
2022/10/22 05:14:10;;;;;;;339.90;62.50;;;;;;;17.76;72.95;100564.50;4906853;28;119447;-81
2022/10/22 05:16:39;;;;;;;277.88;62.13;;;;;;;17.76;72.77;100566.53;4910051;28;120223;-80
2022/10/22 05:19:05;;;;;;;245.25;61.20;;;;;;;17.76;73.11;100560.97;4880150;28;119727;-80
2022/10/22 05:21:31;;;;;;;266.15;64.93;;;;;;;17.69;73.17;100537.25;4900125;28;119775;-81
2022/10/22 05:24:00;;;;;;;224.60;62.90;;;;;;;17.72;73.03;100547.34;4902073;28;120018;-80
2022/10/22 05:26:27;;;;;;;250.48;61.15;;;;;;;17.77;73.31;100551.41;4909162;28;120060;-81
2022/10/22 05:28:53;;;;;;;268.63;62.25;;;;;;;17.77;73.21;100548.63;4901065;28;119559;-81
2022/10/22 05:31:19;;;;;;;329.13;64.78;;;;;;;17.74;72.96;100542.06;4898210;28;119826;-80
2022/10/22 05:33:46;;;;;;;415.70;65.60;;;;;;;17.78;73.07;100544.59;4881559;28;119879;-81
2022/10/22 05:36:14;;;;;;;259.80;64.63;;;;;;;17.70;72.75;100538.75;4905260;28;120909;-81
2022/10/22 05:38:43;;;;;;;216.35;62.83;;;;;;;17.79;73.19;100551.66;4897446;28;120468;-80
2022/10/22 05:41:11;;;;;;;305.42;63.42;;;;;;;17.78;73.07;100545.34;4882720;28;120122;-80
2022/10/22 05:43:38;;;;;;;262.15;62.42;;;;;;;17.75;72.98;100548.38;4917907;28;119531;-80
2022/10/22 05:46:09;;;;;;;254.43;64.80;;;;;;;17.75;73.18;100553.91;4915110;28;119698;-81
2022/10/22 05:48:35;;;;;;;295.02;62.92;;;;;;;17.77;73.11;100557.69;4900226;28;119653;-80
2022/10/22 05:51:04;;;;;;;229.45;60.78;;;;;;;17.77;73.06;100562.50;4901250;28;121808;-81
2022/10/22 05:53:34;;;;;;;218.30;60.55;;;;;;;17.73;73.14;100565.50;4900406;28;120460;-81
2022/10/22 05:56:05;;;;;;;258.95;60.67;;;;;;;17.73;73.35;100576.59;4900526;28;119388;-79
2022/10/22 05:58:31;;;;;;;237.18;61.60;;;;;;;17.73;73.40;100579.34;4910427;28;120438;-81
2022/10/22 06:01:10;;;;;;;285.13;64.13;;;;;;;17.67;73.50;100575.81;4901797;28;120318;-81
2022/10/22 06:03:35;;;;;;;261.60;62.92;;;;;;;17.70;73.33;100583.13;4897507;28;119882;-81
2022/10/22 06:06:06;;;;;;;277.70;63.08;;;;;;;17.69;73.53;100584.41;4899097;28;120227;-81
2022/10/22 06:08:32;;;;;;;260.23;61.17;;;;;;;17.66;73.48;100582.59;4886274;28;120817;-80
2022/10/22 06:10:58;;;;;;;291.15;63.60;;;;;;;17.65;73.35;100585.88;4909064;28;120381;-80
2022/10/22 06:13:24;;;;;;;240.93;61.92;;;;;;;17.68;73.26;100584.91;4895717;28;119816;-81
2022/10/22 06:15:52;;;;;;;318.02;65.93;;;;;;;17.67;73.26;100588.91;4893284;28;119959;-81
2022/10/22 06:18:18;;;;;;;206.43;61.80;;;;;;;17.66;73.35;100595.72;4893505;28;119548;-80
2022/10/22 06:20:46;;;;;;;276.90;65.05;;;;;;;17.57;73.32;100584.88;4899409;28;119790;-81
2022/10/22 06:23:11;;;;;;;241.40;60.03;;;;;;;17.62;73.26;100587.66;4903905;28;119805;-80
2022/10/22 06:25:37;;;;;;;250.23;62.10;;;;;;;17.56;73.34;100588.91;4885107;28;120052;-81
2022/10/22 06:28:03;;;;;;;232.32;61.00;;;;;;;17.61;73.64;100597.22;4896939;28;119618;-80
2022/10/22 06:30:29;;;;;;;342.08;64.78;;;;;;;17.58;73.56;100592.69;4898806;28;120237;-80
2022/10/22 06:32:55;;;;;;;256.80;63.25;;;;;;;17.58;73.60;100591.94;4898031;28;119434;-80
2022/10/22 06:35:20;;;;;;;414.80;70.18;;;;;;;17.59;73.68;100596.97;4899209;28;119480;-80
2022/10/22 06:37:46;;;;;;;256.42;60.38;;;;;;;17.61;73.65;100602.78;4886565;28;120472;-81
2022/10/22 06:40:12;;;;;;;293.27;63.25;;;;;;;17.65;73.68;100610.84;4916363;28;120030;-80
2022/10/22 06:42:38;;;;;;;213.93;59.75;;;;;;;17.64;73.37;100607.31;4901051;28;119921;-80
2022/10/22 06:45:04;;;;;;;239.77;62.97;;;;;;;17.60;73.95;100597.72;4899715;28;120256;-81
2022/10/22 06:47:32;;;;;;;213.95;58.13;;;;;;;17.67;73.85;100609.13;4902603;28;120035;-80
2022/10/22 06:49:58;;;;;;;211.30;57.33;;;;;;;17.69;73.77;100609.38;4906985;28;120136;-81
2022/10/22 06:52:24;;;;;;;282.40;62.75;;;;;;;17.68;73.67;100607.84;4899595;28;120248;-81
2022/10/22 06:54:49;;;;;;;210.68;57.88;;;;;;;17.72;73.61;100610.38;4902531;28;119997;-80
2022/10/22 06:57:15;;;;;;;214.85;61.75;;;;;;;17.70;73.60;100619.19;4904262;28;120142;-81
2022/10/22 06:59:41;;;;;;;245.18;61.58;;;;;;;17.74;73.91;100621.72;4899578;28;120238;-80
2022/10/22 07:02:09;;;;;;;214.75;60.70;;;;;;;17.75;73.45;100629.56;4908656;28;119831;-80
2022/10/22 07:04:35;;;;;;;255.95;62.08;;;;;;;17.73;73.66;100626.53;4907162;28;119435;-80
2022/10/22 07:07:00;;;;;;;299.60;66.28;;;;;;;17.76;73.97;100622.75;4882079;28;119924;-81
2022/10/22 07:09:26;;;;;;;222.98;61.88;;;;;;;17.81;73.85;100623.28;4911345;28;119944;-80
2022/10/22 07:11:52;;;;;;;258.70;64.10;;;;;;;17.84;73.83;100627.81;4911830;28;119395;-80
2022/10/22 07:14:17;;;;;;;215.68;59.45;;;;;;;17.80;73.62;100628.06;4906366;28;119490;-81
2022/10/22 07:16:45;;;;;;;237.40;61.13;;;;;;;17.89;73.68;100627.06;4902301;28;120272;-80
2022/10/22 07:19:12;;;;;;;254.20;61.17;;;;;;;17.89;73.45;100638.16;4898610;28;119922;-81
2022/10/22 07:21:38;;;;;;;216.05;59.95;;;;;;;17.87;73.34;100637.91;4897270;28;121095;-80
2022/10/22 07:24:06;;;;;;;296.55;61.83;;;;;;;17.85;73.22;100641.19;4898843;28;120614;-80
2022/10/22 07:26:32;;;;;;;286.45;62.13;;;;;;;17.86;73.25;100644.72;4907203;28;119963;-80
2022/10/22 07:28:59;;;;;;;261.63;61.22;;;;;;;17.88;73.30;100647.75;4902525;28;119605;-81
2022/10/22 07:31:25;;;;;;;263.33;60.40;;;;;;;17.87;73.17;100649.75;4905317;28;119795;-81
2022/10/22 07:33:53;;;;;;;266.73;62.70;;;;;;;17.82;73.17;100644.22;4914859;28;119791;-80
2022/10/22 07:36:19;;;;;;;220.50;58.58;;;;;;;17.89;73.31;100655.56;4902297;28;119514;-81
2022/10/22 07:38:46;;;;;;;211.07;59.17;;;;;;;17.86;73.16;100645.47;4894689;28;119736;-81
2022/10/22 07:41:13;;;;;;;214.93;60.25;;;;;;;17.91;73.35;100655.81;4901727;28;120620;-81
2022/10/22 07:43:39;;;;;;;198.32;58.25;;;;;;;17.93;73.39;100655.31;4911846;28;119562;-79
2022/10/22 07:46:07;;;;;;;200.18;59.38;;;;;;;17.93;73.28;100655.31;4900729;28;120012;-81
2022/10/22 07:48:33;;;;;;;280.27;62.83;;;;;;;17.94;73.13;100656.84;4904413;28;119487;-79
2022/10/22 07:51:05;;;;;;;220.02;59.80;;;;;;;17.93;73.13;100658.84;4885765;28;119491;-80
2022/10/22 07:53:31;;;;;;;174.88;59.25;;;;;;;17.93;73.21;100660.88;4900385;28;119844;-81
2022/10/22 07:55:58;;;;;;;187.48;60.28;;;;;;;17.87;73.16;100651.78;4901469;28;120243;-81
2022/10/22 07:58:23;;;;;;;183.27;60.75;;;;;;;17.96;73.23;100676.50;4902268;28;119955;-82
2022/10/22 08:00:50;;;;;;;168.88;59.10;;;;;;;17.94;73.25;100674.25;4901658;28;119926;-81
2022/10/22 08:03:19;;;;;;;167.57;59.22;;;;;;;17.91;73.00;100668.94;4900930;28;120900;-80
2022/10/22 08:05:45;;;;;;;203.07;60.45;;;;;;;17.91;73.15;100671.72;4901968;28;119552;-81
2022/10/22 08:08:13;;;;;;;169.05;58.00;;;;;;;17.92;73.00;100670.44;4898446;28;119839;-80
2022/10/22 08:10:39;;;;;;;160.80;57.58;;;;;;;17.90;73.01;100668.19;4910555;28;120191;-80
2022/10/22 08:13:05;;;;;;;163.48;57.75;;;;;;;17.90;72.97;100670.19;4909731;28;120602;-80
2022/10/22 08:15:31;;;;;;;160.77;58.80;;;;;;;17.88;72.83;100665.16;4901953;28;120401;-80
2022/10/22 08:17:56;;;;;;;154.68;56.45;;;;;;;17.90;73.02;100670.94;4904988;28;119867;-80
2022/10/22 08:20:22;;;;;;;165.35;58.17;;;;;;;17.89;73.00;100669.44;4899787;28;120227;-81
2022/10/22 08:22:51;;;;;;;153.63;57.55;;;;;;;17.88;72.88;100664.41;4914481;28;120571;-81
2022/10/22 08:25:17;;;;;;;185.40;57.47;;;;;;;17.87;72.84;100666.41;4903975;28;120285;-81
2022/10/22 08:27:43;;;;;;;144.93;56.78;;;;;;;17.85;72.95;100665.41;4901391;28;119404;-80
2022/10/22 08:30:09;;;;;;;153.90;56.55;;;;;;;17.87;72.87;100673.97;4897552;28;121184;-81
2022/10/22 08:32:35;;;;;;;149.55;55.25;;;;;;;17.87;72.90;100677.50;4908171;28;119991;-81
2022/10/22 08:35:01;;;;;;;154.70;56.95;;;;;;;17.87;72.92;100682.31;4900336;28;119479;-80
2022/10/22 08:37:27;;;;;;;144.13;58.20;;;;;;;17.83;73.08;100674.22;4909261;28;120014;-80
2022/10/22 08:39:52;;;;;;;138.25;55.10;;;;;;;17.86;73.16;100681.53;4909094;28;119627;-80
2022/10/22 08:42:42;;;;;;;172.75;55.65;;;;;;;17.92;73.14;100692.66;4896909;28;120299;-81
2022/10/22 08:45:23;;;;;;;141.48;54.67;;;;;;;17.91;73.00;100689.13;4899172;28;120268;-81
2022/10/22 08:48:30;;;;;;;148.90;54.58;;;;;;;17.92;72.94;100704.50;4898582;28;120029;-80
2022/10/22 08:50:56;;;;;;;134.20;53.63;;;;;;;17.91;72.78;100707.78;4897594;28;120700;-81
2022/10/22 08:53:54;;;;;;;148.80;54.55;;;;;;;17.91;72.81;100713.34;4913510;28;119494;-81
2022/10/22 08:56:22;;;;;;;138.63;54.00;;;;;;;17.91;72.88;100713.34;4891990;28;119562;-80
2022/10/22 08:59:08;;;;;;;136.00;54.50;;;;;;;17.86;72.84;100711.31;4890821;28;119362;-80
2022/10/22 09:01:40;;;;;;;151.63;55.75;;;;;;;17.91;72.68;100721.66;4889229;28;120270;-80
2022/10/22 09:04:11;;;;;;;139.15;55.78;;;;;;;17.89;72.57;100724.19;4882085;28;122188;-80
2022/10/22 09:06:43;;;;;;;147.05;55.75;;;;;;;17.81;72.82;100706.50;4896129;28;119500;-81
2022/10/22 09:09:16;;;;;;;173.88;57.72;;;;;;;17.85;72.53;100720.88;4893264;28;119776;-81
2022/10/22 09:11:50;;;;;;;145.65;58.17;;;;;;;17.84;72.78;100724.94;4907467;28;119928;-80
2022/10/22 09:14:22;;;;;;;147.35;60.97;;;;;;;17.85;72.95;100720.88;4902215;28;119795;-80
2022/10/22 09:17:12;;;;;;;143.10;60.65;;;;;;;17.87;72.85;100721.16;4901711;28;120331;-81
2022/10/22 09:19:57;;;;;;;134.68;59.13;;;;;;;17.85;72.84;100713.31;4894958;28;120108;-80
2022/10/22 09:22:49;;;;;;;126.50;57.72;;;;;;;17.89;72.90;100715.84;4911723;28;119591;-81
2022/10/22 09:25:26;;;;;;;123.35;55.67;;;;;;;17.86;72.98;100711.31;4890981;28;121718;-81
2022/10/22 09:27:57;;;;;;;119.38;56.28;;;;;;;17.92;73.28;100704.50;4891815;28;119836;-81
2022/10/22 09:30:31;;;;;;;121.00;56.03;;;;;;;17.94;73.04;100706.78;4898849;28;120016;-81
2022/10/22 09:33:05;;;;;;;127.22;57.83;;;;;;;18.01;73.09;100712.63;4903381;28;119938;-81
2022/10/22 09:35:44;;;;;;;115.47;54.90;;;;;;;18.02;73.03;100708.59;4901985;28;120181;-79
2022/10/22 09:38:13;;;;;;;115.00;54.30;;;;;;;18.09;73.09;100713.63;4898160;28;119491;-81
2022/10/22 09:40:44;;;;;;;119.70;56.15;;;;;;;18.08;72.97;100716.91;4901148;28;119973;-80
2022/10/22 09:43:13;;;;;;;110.70;51.70;;;;;;;18.18;72.98;100725.75;4906458;28;119510;-80
2022/10/22 09:45:39;;;;;;;109.90;49.65;;;;;;;18.18;72.73;100726.50;4892189;28;120082;-81
2022/10/22 09:48:11;;;;;;;106.03;51.58;;;;;;;18.21;72.65;100719.97;4906158;28;120636;-80
2022/10/22 09:50:43;;;;;;;110.93;52.58;;;;;;;18.26;72.72;100724.03;4902001;28;119878;-81
2022/10/22 09:53:18;;;;;;;108.60;52.08;;;;;;;18.30;72.81;100716.19;4898277;28;120431;-80
2022/10/22 09:55:49;;;;;;;110.18;52.72;;;;;;;18.38;72.67;100723.53;4884375;28;119883;-80
2022/10/22 09:58:17;;;;;;;115.75;53.10;;;;;;;18.45;72.67;100721.50;4895560;28;119777;-80
2022/10/22 10:00:45;;;;;;;112.75;52.22;;;;;;;18.49;72.53;100719.25;4899548;28;119485;-81
2022/10/22 10:03:20;;;;;;;110.15;51.50;;;;;;;18.57;72.63;100721.00;4903250;28;119950;-80
2022/10/22 10:05:50;;;;;;;108.20;51.20;;;;;;;18.60;72.71;100724.78;4897400;28;120089;-80
2022/10/22 10:08:16;;;;;;;104.55;51.05;;;;;;;18.66;72.61;100723.56;4900359;28;119994;-80
2022/10/22 10:10:50;;;;;;;105.10;51.88;;;;;;;18.76;72.55;100726.84;4900677;28;120179;-80
2022/10/22 10:13:22;;;;;;;;;;;;;;;18.80;71.88;100729.38;4892807;28;120038;-80
2022/10/22 10:16:04;;;;;;;103.97;49.80;;;;;;;18.77;72.11;100720.03;4901266;28;120232;-80
2022/10/22 10:18:55;;;;;;;101.22;49.75;;;;;;;18.91;72.10;100737.69;4916120;28;119717;-79
2022/10/22 10:21:34;;;;;;;100.05;50.22;;;;;;;18.96;72.28;100740.47;4893496;28;120947;-80
2022/10/22 10:24:15;;;;;;;101.35;49.03;;;;;;;19.02;72.00;100735.66;4891881;28;119766;-80
2022/10/22 10:27:10;;;;;;;100.75;49.75;;;;;;;19.04;71.80;100740.72;4896000;28;120436;-81
2022/10/22 10:29:38;;;;;;;137.85;63.00;;;;;;;19.09;72.13;100741.97;4889425;28;119674;-80
2022/10/22 10:32:22;;;;;;;101.20;50.03;;;;;;;19.14;71.79;100746.75;4895262;28;120173;-80
2022/10/22 10:35:14;;;;;;;;;;;;;;;19.14;71.27;100749.53;4885771;28;122793;-81
2022/10/22 10:38:10;;;;;;;92.65;46.78;;;;;;;19.22;71.53;100751.31;4898471;28;120299;-81
2022/10/22 10:40:38;;;;;;;84.55;45.20;;;;;;;19.27;71.50;100758.13;4889011;28;120555;-81
2022/10/22 10:43:33;;;;;;;83.60;44.40;;;;;;;19.35;71.82;100752.78;4894563;28;120269;-80
2022/10/22 10:46:45;;;;;;;76.30;42.65;;;;;;;19.40;71.36;100749.22;4888357;28;120517;-80
2022/10/22 10:49:35;;;;;;;82.15;43.17;;;;;;;19.42;70.81;100750.25;4890870;28;119852;-82
2022/10/22 10:52:24;;;;;;;76.15;42.08;;;;;;;19.44;70.92;100756.06;4894191;28;121325;-80
2022/10/22 10:55:17;;;;;;;79.65;42.70;;;;;;;19.50;71.07;100756.03;4891380;28;120110;-81
2022/10/22 10:57:46;;;;;;;78.22;44.03;;;;;;;19.53;70.95;100755.81;4890850;28;120559;-81
2022/10/22 11:00:18;;;;;;;76.13;43.28;;;;;;;19.57;70.86;100756.28;4897128;28;120242;-83
2022/10/22 11:03:31;;;;;;;81.65;43.28;;;;;;;19.58;70.46;100749.44;4896052;28;120313;-82
2022/10/22 11:05:59;;;;;;;69.50;40.17;;;;;;;19.60;70.32;100755.25;4891125;28;120136;-82
2022/10/22 11:08:42;;;;;;;65.55;39.72;;;;;;;19.60;70.00;100754.50;4891772;28;119719;-81
2022/10/22 11:11:21;;;;;;;71.13;41.60;;;;;;;19.63;69.97;100765.38;4891801;28;119607;-82
2022/10/22 11:13:56;;;;;;;68.05;39.90;;;;;;;19.61;69.79;100758.81;4896295;28;121493;-81
2022/10/22 11:16:23;;;;;;;65.63;40.38;;;;;;;19.61;69.91;100753.22;4893665;28;120233;-81